This is the latest recevied weather packets stored in our database for station/object F4FSZ-11. If no packets are shown the sender has not sent any weather packets the latest 10 day(s).
| Time | Temp. | Humidity | Pressure | Rain* | Wind** | Luminosity | Snow |
|---|---|---|---|---|---|---|---|
| 1777486694 | 19.44° C | 39% | 1011.4 hPa | - | - | - | - |
| 1777485794 | 21.11° C | 38% | 1011.1 hPa | - | - | - | - |
| 1777484894 | 20.56° C | 38% | 1011.1 hPa | - | - | - | - |
| 1777483994 | 23.89° C | 34% | 1010.9 hPa | - | - | - | - |
| 1777483094 | 21.67° C | 36% | 1010.8 hPa | - | - | - | - |
| 1777482194 | 21.67° C | 37% | 1010.8 hPa | - | - | - | - |
| 1777481294 | 23.33° C | 34% | 1010.8 hPa | - | - | - | - |
| 1777480394 | 23.33° C | 34% | 1010.8 hPa | - | - | - | - |
| 1777479492 | 26.11° C | 31% | 1010.6 hPa | - | - | - | - |
| 1777478592 | 25° C | 33% | 1010.7 hPa | - | - | - | - |
| 1777477691 | 25° C | 34% | 1010.7 hPa | - | - | - | - |
| 1777476791 | 28.33° C | 31% | 1010.5 hPa | - | - | - | - |
| 1777475891 | 25.56° C | 33% | 1010.7 hPa | - | - | - | - |
| 1777474991 | 25° C | 33% | 1010.7 hPa | - | - | - | - |
| 1777474091 | 26.67° C | 32% | 1010.7 hPa | - | - | - | - |
| 1777473191 | 26.11° C | 32% | 1010.7 hPa | - | - | - | - |
| 1777472291 | 24.44° C | 34% | 1010.7 hPa | - | - | - | - |
| 1777471391 | 24.44° C | 35% | 1010.8 hPa | - | - | - | - |
| 1777470491 | 26.67° C | 32% | 1010.9 hPa | - | - | - | - |
| 1777469591 | 33.33° C | 24% | 1010.7 hPa | - | - | - | - |
| 1777468691 | 26.67° C | 34% | 1010.8 hPa | - | - | - | - |
| 1777467791 | 26.11° C | 33% | 1010.8 hPa | - | - | - | - |
| 1777466891 | 27.22° C | 32% | 1010.9 hPa | - | - | - | - |
| 1777465991 | 27.22° C | 33% | 1010.8 hPa | - | - | - | - |
| 1777465090 | 27.22° C | 34% | 1010.7 hPa | - | - | - | - |
* Rain since midnight (hover to see other rain measurements)
** Current wind speed in m/s (hover to see current wind gust speed)